Tancred — LALX4 — position and weather

sailwx.info

Track history (hours):
 
Tides and Currents Weather Stations Pressure Air Temp Water Temp Dewpoint Dewpoint Depression Visibility Wind Speed Wind Dir Waves Ship Positions

Tancred

Last reported at 2014-Sep-17 15:24 UTC. Time now 2014-Sep-19 09:53 UTC.
Position N 48°31' W 126°25'.

Length 190 m; draft 7.6 m.

Type: Cargo ship. MMSI: 258787000.

Date/timePositionNaut miles runAvg speedWind from/ knotsBaromVisibWave heightAir tempDewpointWater temp
2014-Sep-17 15:24N 48°31' W 126°25'1214.4
2014-Sep-17 14:32N 48°31' W 126°06'1514.8
2014-Sep-17 13:33N 48°31' W 125°44'1515.0
2014-Sep-17 12:33N 48°31' W 125°22'1515.3
2014-Sep-17 11:33N 48°31' W 124°58'1615.6
2014-Sep-17 10:33N 48°28' W 124°35'1616.1
2014-Sep-17 09:33N 48°22' W 124°13'1716.2
2014-Sep-17 08:32N 48°17' W 123°49'1514.6
2014-Sep-17 07:32N 48°14' W 123°28'9 9.6
2014-Sep-17 06:33N 48°10' W 123°15'1615.5
2014-Sep-17 05:32N 48°12' W 122°52'1514.8
2014-Sep-17 04:31N 48°00' W 122°36'1515.6
2014-Sep-17 03:33N 47°47' W 122°26'1716.6
2014-Sep-17 02:33N 47°31' W 122°25'14 0.9
2014-Sep-16 11:26N 47°17' W 122°25'7 7.9
2014-Sep-16 10:31N 47°24' W 122°22'1515.4
2014-Sep-16 09:33N 47°38' W 122°28'1515.1
2014-Sep-16 08:33N 47°53' W 122°30'1413.7
2014-Sep-16 07:33N 48°05' W 122°40'1313.2
2014-Sep-16 06:33N 48°11' W 122°57'1515.0
2014-Sep-16 05:33N 48°11' W 123°19'9 8.7
2014-Sep-16 04:33N 48°17' W 123°29'1110.9
2014-Sep-16 03:33N 48°24' W 123°16'1414.2
2014-Sep-16 02:34N 48°38' W 123°14'1313.4
2014-Sep-16 01:34N 48°48' W 123°01'1615.9
2014-Sep-16 00:34N 48°60' W 123°17'8 8.2
2014-Sep-15 23:33N 49°08' W 123°12'9 9.5
2014-Sep-15 22:33N 49°09' W 122°58'3 2.3
2014-Sep-15 21:26N 49°11' W 122°55'0 0.0
2014-Sep-15 20:32N 49°11' W 122°55'0 0.0
2014-Sep-15 19:32N 49°11' W 122°55'0 0.0
2014-Sep-15 18:32N 49°11' W 122°55'0 0.0
2014-Sep-15 17:26N 49°11' W 122°55'0 0.0
2014-Sep-15 16:32N 49°11' W 122°55'0 0.0
2014-Sep-15 15:32N 49°11' W 122°55'0 0.0
2014-Sep-15 14:32N 49°11' W 122°55'0 0.0
2014-Sep-15 13:32N 49°11' W 122°55'0 0.0
2014-Sep-15 12:32N 49°11' W 122°55'0 0.0
2014-Sep-15 11:32N 49°11' W 122°55'0 0.0
2014-Sep-15 10:32N 49°11' W 122°55'0 0.0
2014-Sep-15 09:32N 49°11' W 122°55'0 0.0
2014-Sep-15 08:32N 49°11' W 122°55'0 0.0
2014-Sep-15 07:32N 49°11' W 122°55'0 0.0
2014-Sep-15 06:29N 49°11' W 122°55'0 0.0
2014-Sep-15 05:32N 49°11' W 122°55'0 0.0
2014-Sep-15 04:32N 49°11' W 122°55'0 0.0
2014-Sep-15 03:32N 49°11' W 122°55'0 0.0
2014-Sep-15 02:32N 49°11' W 122°55'0 0.0
2014-Sep-15 01:32N 49°11' W 122°55'0 0.0
2014-Sep-15 00:32N 49°11' W 122°55'0 0.0
2014-Sep-14 23:32N 49°11' W 122°55'0 0.1
2014-Sep-14 22:33N 49°11' W 122°55'6 6.1
2014-Sep-14 21:33N 49°08' W 123°03'8 8.5
2014-Sep-14 20:33N 49°07' W 123°16'8 7.8
2014-Sep-14 19:33N 48°60' W 123°13'1313.2
2014-Sep-14 18:34N 48°49' W 123°01'1313.0
2014-Sep-14 17:34N 48°40' W 123°15'1515.3
2014-Sep-14 16:33N 48°25' W 123°11'1312.7
2014-Sep-14 15:33N 48°17' W 123°25'1212.2
2014-Sep-14 14:33N 48°13' W 123°43'1211.4
2014-Sep-14 13:29N 48°15' W 124°01'3113.2
2014-Sep-14 11:08N 48°28' W 124°43'813.7
2014-Sep-14 10:32N 48°28' W 124°56'1414.4
2014-Sep-14 09:33N 48°28' W 125°17'1414.5
2014-Sep-14 08:33N 48°28' W 125°39'1414.4
2014-Sep-14 07:33N 48°28' W 126°00'1515.0
2014-Sep-14 06:33N 48°27' W 126°23'1515.0
2014-Sep-14 05:33N 48°25' W 126°45'1515.0
2014-Sep-14 04:33N 48°22' W 127°08'1514.9
2014-Sep-14 03:33N 48°20' W 127°30'6 3.1
2014-Sep-14 01:31N 48°20' W 127°39'7 0.7
2014-Sep-13 15:27N 48°27' W 127°44'1313.8
2014-Sep-13 14:32N 48°27' W 128°03'  
Track history (hours):
 
Tides and Currents Weather Stations Pressure Air Temp Water Temp Dewpoint Dewpoint Depression Visibility Wind Speed Wind Dir Waves Ship Positions

Tancred

Last reported at 2014-Sep-17 15:24 UTC. Time now 2014-Sep-19 09:53 UTC.
Position N 48°31' W 126°25'.

Length 190 m; draft 7.6 m.

Type: Cargo ship. MMSI: 258787000.

Date/timePositionNaut miles runAvg speedWind from/ knotsBaromVisibWave heightAir tempDewpointWater temp
2014-Sep-17 15:24N 48°31' W 126°25'1214.4
2014-Sep-17 14:32N 48°31' W 126°06'1514.8
2014-Sep-17 13:33N 48°31' W 125°44'1515.0
2014-Sep-17 12:33N 48°31' W 125°22'1515.3
2014-Sep-17 11:33N 48°31' W 124°58'1615.6
2014-Sep-17 10:33N 48°28' W 124°35'1616.1
2014-Sep-17 09:33N 48°22' W 124°13'1716.2
2014-Sep-17 08:32N 48°17' W 123°49'1514.6
2014-Sep-17 07:32N 48°14' W 123°28'9 9.6
2014-Sep-17 06:33N 48°10' W 123°15'1615.5
2014-Sep-17 05:32N 48°12' W 122°52'1514.8
2014-Sep-17 04:31N 48°00' W 122°36'1515.6
2014-Sep-17 03:33N 47°47' W 122°26'1716.6
2014-Sep-17 02:33N 47°31' W 122°25'14 0.9
2014-Sep-16 11:26N 47°17' W 122°25'7 7.9
2014-Sep-16 10:31N 47°24' W 122°22'1515.4
2014-Sep-16 09:33N 47°38' W 122°28'1515.1
2014-Sep-16 08:33N 47°53' W 122°30'1413.7
2014-Sep-16 07:33N 48°05' W 122°40'1313.2
2014-Sep-16 06:33N 48°11' W 122°57'1515.0
2014-Sep-16 05:33N 48°11' W 123°19'9 8.7
2014-Sep-16 04:33N 48°17' W 123°29'1110.9
2014-Sep-16 03:33N 48°24' W 123°16'1414.2
2014-Sep-16 02:34N 48°38' W 123°14'1313.4
2014-Sep-16 01:34N 48°48' W 123°01'1615.9
2014-Sep-16 00:34N 48°60' W 123°17'8 8.2
2014-Sep-15 23:33N 49°08' W 123°12'9 9.5
2014-Sep-15 22:33N 49°09' W 122°58'3 2.3
2014-Sep-15 21:26N 49°11' W 122°55'0 0.0
2014-Sep-15 20:32N 49°11' W 122°55'0 0.0
2014-Sep-15 19:32N 49°11' W 122°55'0 0.0
2014-Sep-15 18:32N 49°11' W 122°55'0 0.0
2014-Sep-15 17:26N 49°11' W 122°55'0 0.0
2014-Sep-15 16:32N 49°11' W 122°55'0 0.0
2014-Sep-15 15:32N 49°11' W 122°55'0 0.0
2014-Sep-15 14:32N 49°11' W 122°55'0 0.0
2014-Sep-15 13:32N 49°11' W 122°55'0 0.0
2014-Sep-15 12:32N 49°11' W 122°55'0 0.0
2014-Sep-15 11:32N 49°11' W 122°55'0 0.0
2014-Sep-15 10:32N 49°11' W 122°55'0 0.0
2014-Sep-15 09:32N 49°11' W 122°55'0 0.0
2014-Sep-15 08:32N 49°11' W 122°55'0 0.0
2014-Sep-15 07:32N 49°11' W 122°55'0 0.0
2014-Sep-15 06:29N 49°11' W 122°55'0 0.0
2014-Sep-15 05:32N 49°11' W 122°55'0 0.0
2014-Sep-15 04:32N 49°11' W 122°55'0 0.0
2014-Sep-15 03:32N 49°11' W 122°55'0 0.0
2014-Sep-15 02:32N 49°11' W 122°55'0 0.0
2014-Sep-15 01:32N 49°11' W 122°55'0 0.0
2014-Sep-15 00:32N 49°11' W 122°55'0 0.0
2014-Sep-14 23:32N 49°11' W 122°55'0 0.1
2014-Sep-14 22:33N 49°11' W 122°55'6 6.1
2014-Sep-14 21:33N 49°08' W 123°03'8 8.5
2014-Sep-14 20:33N 49°07' W 123°16'8 7.8
2014-Sep-14 19:33N 48°60' W 123°13'1313.2
2014-Sep-14 18:34N 48°49' W 123°01'1313.0
2014-Sep-14 17:34N 48°40' W 123°15'1515.3
2014-Sep-14 16:33N 48°25' W 123°11'1312.7
2014-Sep-14 15:33N 48°17' W 123°25'1212.2
2014-Sep-14 14:33N 48°13' W 123°43'1211.4
2014-Sep-14 13:29N 48°15' W 124°01'3113.2
2014-Sep-14 11:08N 48°28' W 124°43'813.7
2014-Sep-14 10:32N 48°28' W 124°56'1414.4
2014-Sep-14 09:33N 48°28' W 125°17'1414.5
2014-Sep-14 08:33N 48°28' W 125°39'1414.4
2014-Sep-14 07:33N 48°28' W 126°00'1515.0
2014-Sep-14 06:33N 48°27' W 126°23'1515.0
2014-Sep-14 05:33N 48°25' W 126°45'1515.0
2014-Sep-14 04:33N 48°22' W 127°08'1514.9
2014-Sep-14 03:33N 48°20' W 127°30'6 3.1
2014-Sep-14 01:31N 48°20' W 127°39'7 0.7
2014-Sep-13 15:27N 48°27' W 127°44'1313.8
2014-Sep-13 14:32N 48°27' W 128°03'  

Dump ship's entire track history